sensor_id;sensor_type;location;lat;lon;timestamp;P1;durP1;ratioP1;P2;durP2;ratioP2
19778;SDS011;10049;59.306;18.090;2023-08-12T00:01:21;2.65;;;1.35;;
19778;SDS011;10049;59.306;18.090;2023-08-12T00:03:50;6.40;;;1.48;;
19778;SDS011;10049;59.306;18.090;2023-08-12T00:06:17;2.65;;;1.20;;
19778;SDS011;10049;59.306;18.090;2023-08-12T00:08:45;4.47;;;1.30;;
19778;SDS011;10049;59.306;18.090;2023-08-12T00:11:14;5.65;;;1.35;;
19778;SDS011;10049;59.306;18.090;2023-08-12T00:13:42;4.85;;;1.80;;
19778;SDS011;10049;59.306;18.090;2023-08-12T00:16:09;3.42;;;1.20;;
19778;SDS011;10049;59.306;18.090;2023-08-12T00:18:37;8.80;;;1.40;;
19778;SDS011;10049;59.306;18.090;2023-08-12T00:21:07;5.00;;;1.42;;
19778;SDS011;10049;59.306;18.090;2023-08-12T00:23:37;6.10;;;1.30;;
19778;SDS011;10049;59.306;18.090;2023-08-12T00:26:05;4.65;;;1.30;;
19778;SDS011;10049;59.306;18.090;2023-08-12T00:28:34;2.60;;;1.40;;
19778;SDS011;10049;59.306;18.090;2023-08-12T00:31:02;5.28;;;1.40;;
19778;SDS011;10049;59.306;18.090;2023-08-12T00:33:29;4.13;;;1.40;;
19778;SDS011;10049;59.306;18.090;2023-08-12T00:35:57;2.53;;;1.27;;
19778;SDS011;10049;59.306;18.090;2023-08-12T00:38:27;4.25;;;1.30;;
19778;SDS011;10049;59.306;18.090;2023-08-12T00:40:55;2.50;;;1.20;;
19778;SDS011;10049;59.306;18.090;2023-08-12T00:43:23;4.10;;;1.33;;
19778;SDS011;10049;59.306;18.090;2023-08-12T00:45:52;5.10;;;1.40;;
19778;SDS011;10049;59.306;18.090;2023-08-12T00:48:20;4.70;;;1.10;;
19778;SDS011;10049;59.306;18.090;2023-08-12T00:50:48;5.53;;;1.30;;
19778;SDS011;10049;59.306;18.090;2023-08-12T00:53:16;4.90;;;1.40;;
19778;SDS011;10049;59.306;18.090;2023-08-12T00:55:44;2.78;;;1.40;;
19778;SDS011;10049;59.306;18.090;2023-08-12T00:58:11;3.40;;;1.25;;
19778;SDS011;10049;59.306;18.090;2023-08-12T01:00:39;3.55;;;1.23;;
19778;SDS011;10049;59.306;18.090;2023-08-12T01:03:09;4.97;;;1.40;;
19778;SDS011;10049;59.306;18.090;2023-08-12T01:05:37;5.32;;;1.52;;
19778;SDS011;10049;59.306;18.090;2023-08-12T01:08:05;3.25;;;1.50;;
19778;SDS011;10049;59.306;18.090;2023-08-12T01:10:34;2.28;;;1.30;;
19778;SDS011;10049;59.306;18.090;2023-08-12T01:13:05;3.40;;;1.00;;
19778;SDS011;10049;59.306;18.090;2023-08-12T01:15:34;3.85;;;1.50;;
19778;SDS011;10049;59.306;18.090;2023-08-12T01:18:02;4.03;;;1.40;;
19778;SDS011;10049;59.306;18.090;2023-08-12T01:20:33;3.63;;;1.40;;
19778;SDS011;10049;59.306;18.090;2023-08-12T01:25:46;2.53;;;1.30;;
19778;SDS011;10049;59.306;18.090;2023-08-12T01:28:14;4.05;;;1.60;;
19778;SDS011;10049;59.306;18.090;2023-08-12T01:30:43;2.63;;;1.20;;
19778;SDS011;10049;59.306;18.090;2023-08-12T01:33:14;3.85;;;1.45;;
19778;SDS011;10049;59.306;18.090;2023-08-12T01:35:48;7.53;;;1.70;;
19778;SDS011;10049;59.306;18.090;2023-08-12T01:38:16;4.13;;;1.40;;
19778;SDS011;10049;59.306;18.090;2023-08-12T01:40:45;2.90;;;1.30;;
19778;SDS011;10049;59.306;18.090;2023-08-12T01:43:14;4.28;;;1.70;;
19778;SDS011;10049;59.306;18.090;2023-08-12T01:45:41;5.72;;;1.52;;
19778;SDS011;10049;59.306;18.090;2023-08-12T01:48:09;2.45;;;1.48;;
19778;SDS011;10049;59.306;18.090;2023-08-12T01:50:36;3.70;;;1.38;;
19778;SDS011;10049;59.306;18.090;2023-08-12T01:53:04;2.63;;;1.20;;
19778;SDS011;10049;59.306;18.090;2023-08-12T01:55:31;4.53;;;1.33;;
19778;SDS011;10049;59.306;18.090;2023-08-12T01:57:58;4.30;;;1.30;;
19778;SDS011;10049;59.306;18.090;2023-08-12T02:00:27;3.10;;;1.20;;
19778;SDS011;10049;59.306;18.090;2023-08-12T02:02:55;2.72;;;1.20;;
19778;SDS011;10049;59.306;18.090;2023-08-12T02:05:22;4.82;;;1.23;;
19778;SDS011;10049;59.306;18.090;2023-08-12T02:07:50;5.07;;;1.65;;
19778;SDS011;10049;59.306;18.090;2023-08-12T02:10:17;2.03;;;1.10;;
19778;SDS011;10049;59.306;18.090;2023-08-12T02:12:45;3.80;;;1.33;;
19778;SDS011;10049;59.306;18.090;2023-08-12T02:15:12;5.68;;;1.33;;
19778;SDS011;10049;59.306;18.090;2023-08-12T02:17:41;5.00;;;1.30;;
19778;SDS011;10049;59.306;18.090;2023-08-12T02:20:09;7.00;;;1.80;;
19778;SDS011;10049;59.306;18.090;2023-08-12T02:22:36;7.15;;;1.70;;
19778;SDS011;10049;59.306;18.090;2023-08-12T02:25:04;4.70;;;1.98;;
19778;SDS011;10049;59.306;18.090;2023-08-12T02:27:32;3.70;;;1.30;;
19778;SDS011;10049;59.306;18.090;2023-08-12T02:29:59;6.65;;;2.17;;
19778;SDS011;10049;59.306;18.090;2023-08-12T02:32:27;2.35;;;1.63;;
19778;SDS011;10049;59.306;18.090;2023-08-12T02:34:56;3.00;;;1.30;;
19778;SDS011;10049;59.306;18.090;2023-08-12T02:37:23;2.92;;;1.55;;
19778;SDS011;10049;59.306;18.090;2023-08-12T02:39:51;2.53;;;1.55;;
19778;SDS011;10049;59.306;18.090;2023-08-12T02:42:18;5.50;;;1.70;;
19778;SDS011;10049;59.306;18.090;2023-08-12T02:44:46;2.92;;;1.65;;
19778;SDS011;10049;59.306;18.090;2023-08-12T02:47:13;4.57;;;1.30;;
19778;SDS011;10049;59.306;18.090;2023-08-12T02:49:41;5.03;;;1.60;;
19778;SDS011;10049;59.306;18.090;2023-08-12T02:52:10;5.00;;;1.50;;
19778;SDS011;10049;59.306;18.090;2023-08-12T02:54:37;3.08;;;1.70;;
19778;SDS011;10049;59.306;18.090;2023-08-12T02:57:05;5.28;;;1.58;;
19778;SDS011;10049;59.306;18.090;2023-08-12T02:59:32;4.20;;;1.60;;
19778;SDS011;10049;59.306;18.090;2023-08-12T03:02:00;5.47;;;1.60;;
19778;SDS011;10049;59.306;18.090;2023-08-12T03:04:28;9.90;;;1.30;;
19778;SDS011;10049;59.306;18.090;2023-08-12T03:06:56;4.43;;;1.60;;
19778;SDS011;10049;59.306;18.090;2023-08-12T03:09:25;5.80;;;1.50;;
19778;SDS011;10049;59.306;18.090;2023-08-12T03:11:52;1.60;;;1.20;;
19778;SDS011;10049;59.306;18.090;2023-08-12T03:14:20;4.18;;;1.55;;
19778;SDS011;10049;59.306;18.090;2023-08-12T03:16:47;3.90;;;1.20;;
19778;SDS011;10049;59.306;18.090;2023-08-12T03:19:15;1.55;;;1.13;;
19778;SDS011;10049;59.306;18.090;2023-08-12T03:21:42;3.72;;;1.40;;
19778;SDS011;10049;59.306;18.090;2023-08-12T03:24:09;2.28;;;1.20;;
19778;SDS011;10049;59.306;18.090;2023-08-12T03:26:38;2.28;;;1.13;;
19778;SDS011;10049;59.306;18.090;2023-08-12T03:29:06;2.30;;;1.20;;
19778;SDS011;10049;59.306;18.090;2023-08-12T03:31:34;2.90;;;1.05;;
19778;SDS011;10049;59.306;18.090;2023-08-12T03:34:01;3.47;;;1.05;;
19778;SDS011;10049;59.306;18.090;2023-08-12T03:36:29;3.78;;;1.00;;
19778;SDS011;10049;59.306;18.090;2023-08-12T03:38:57;4.90;;;1.05;;
19778;SDS011;10049;59.306;18.090;2023-08-12T03:41:24;2.90;;;1.00;;
19778;SDS011;10049;59.306;18.090;2023-08-12T03:43:54;2.75;;;1.02;;
19778;SDS011;10049;59.306;18.090;2023-08-12T03:46:21;2.15;;;1.05;;
19778;SDS011;10049;59.306;18.090;2023-08-12T03:48:49;2.33;;;0.90;;
19778;SDS011;10049;59.306;18.090;2023-08-12T03:51:16;1.67;;;0.93;;
19778;SDS011;10049;59.306;18.090;2023-08-12T03:53:44;2.78;;;1.00;;
19778;SDS011;10049;59.306;18.090;2023-08-12T03:56:11;4.25;;;1.92;;
19778;SDS011;10049;59.306;18.090;2023-08-12T03:58:41;1.23;;;0.75;;
19778;SDS011;10049;59.306;18.090;2023-08-12T04:01:11;3.03;;;0.90;;
19778;SDS011;10049;59.306;18.090;2023-08-12T04:03:39;1.13;;;0.70;;
19778;SDS011;10049;59.306;18.090;2023-08-12T04:06:06;4.90;;;0.80;;
19778;SDS011;10049;59.306;18.090;2023-08-12T04:08:34;0.77;;;0.70;;
19778;SDS011;10049;59.306;18.090;2023-08-12T04:11:01;1.13;;;0.70;;
19778;SDS011;10049;59.306;18.090;2023-08-12T04:13:29;1.77;;;0.80;;
19778;SDS011;10049;59.306;18.090;2023-08-12T04:15:57;1.45;;;0.75;;
19778;SDS011;10049;59.306;18.090;2023-08-12T04:18:26;1.35;;;0.73;;
19778;SDS011;10049;59.306;18.090;2023-08-12T04:20:53;1.52;;;0.70;;
19778;SDS011;10049;59.306;18.090;2023-08-12T04:23:21;2.30;;;0.70;;
19778;SDS011;10049;59.306;18.090;2023-08-12T04:25:49;3.47;;;0.88;;
19778;SDS011;10049;59.306;18.090;2023-08-12T04:28:16;2.45;;;0.70;;
19778;SDS011;10049;59.306;18.090;2023-08-12T04:30:45;1.88;;;0.70;;
19778;SDS011;10049;59.306;18.090;2023-08-12T04:33:13;2.33;;;0.80;;
19778;SDS011;10049;59.306;18.090;2023-08-12T04:35:42;0.95;;;0.73;;
19778;SDS011;10049;59.306;18.090;2023-08-12T04:38:09;1.55;;;0.82;;
19778;SDS011;10049;59.306;18.090;2023-08-12T04:40:38;1.63;;;0.65;;
19778;SDS011;10049;59.306;18.090;2023-08-12T04:43:07;1.77;;;0.65;;
19778;SDS011;10049;59.306;18.090;2023-08-12T04:45:34;1.10;;;0.75;;
19778;SDS011;10049;59.306;18.090;2023-08-12T04:48:03;1.83;;;0.70;;
19778;SDS011;10049;59.306;18.090;2023-08-12T04:50:31;1.17;;;0.57;;
19778;SDS011;10049;59.306;18.090;2023-08-12T04:53:01;2.40;;;0.80;;
19778;SDS011;10049;59.306;18.090;2023-08-12T04:55:29;1.55;;;0.50;;
19778;SDS011;10049;59.306;18.090;2023-08-12T04:57:56;2.80;;;0.70;;
19778;SDS011;10049;59.306;18.090;2023-08-12T05:00:24;1.30;;;0.60;;
19778;SDS011;10049;59.306;18.090;2023-08-12T05:02:53;2.15;;;0.88;;
19778;SDS011;10049;59.306;18.090;2023-08-12T05:05:20;0.63;;;0.50;;
19778;SDS011;10049;59.306;18.090;2023-08-12T05:07:48;3.13;;;0.50;;
19778;SDS011;10049;59.306;18.090;2023-08-12T05:10:17;1.77;;;0.63;;
19778;SDS011;10049;59.306;18.090;2023-08-12T05:12:45;1.77;;;0.70;;
19778;SDS011;10049;59.306;18.090;2023-08-12T05:15:15;1.65;;;0.60;;
19778;SDS011;10049;59.306;18.090;2023-08-12T05:17:43;2.65;;;0.60;;
19778;SDS011;10049;59.306;18.090;2023-08-12T05:20:11;1.33;;;0.47;;
19778;SDS011;10049;59.306;18.090;2023-08-12T05:22:38;0.65;;;0.47;;
19778;SDS011;10049;59.306;18.090;2023-08-12T05:25:06;1.75;;;0.60;;
19778;SDS011;10049;59.306;18.090;2023-08-12T05:27:35;1.30;;;0.50;;
19778;SDS011;10049;59.306;18.090;2023-08-12T05:30:04;1.70;;;0.55;;
19778;SDS011;10049;59.306;18.090;2023-08-12T05:32:31;2.45;;;0.43;;
19778;SDS011;10049;59.306;18.090;2023-08-12T05:34:59;1.48;;;0.50;;
19778;SDS011;10049;59.306;18.090;2023-08-12T05:37:27;0.40;;;0.40;;
19778;SDS011;10049;59.306;18.090;2023-08-12T05:39:54;1.63;;;0.50;;
19778;SDS011;10049;59.306;18.090;2023-08-12T05:42:22;2.17;;;0.43;;
19778;SDS011;10049;59.306;18.090;2023-08-12T05:44:51;1.05;;;0.50;;
19778;SDS011;10049;59.306;18.090;2023-08-12T05:47:18;1.25;;;0.50;;
19778;SDS011;10049;59.306;18.090;2023-08-12T05:49:46;1.73;;;0.60;;
19778;SDS011;10049;59.306;18.090;2023-08-12T05:52:13;1.55;;;0.50;;
19778;SDS011;10049;59.306;18.090;2023-08-12T05:54:41;1.45;;;0.50;;
19778;SDS011;10049;59.306;18.090;2023-08-12T05:57:09;1.60;;;0.50;;
19778;SDS011;10049;59.306;18.090;2023-08-12T05:59:36;2.10;;;0.63;;
19778;SDS011;10049;59.306;18.090;2023-08-12T06:02:06;1.15;;;0.50;;
19778;SDS011;10049;59.306;18.090;2023-08-12T06:04:34;0.45;;;0.40;;
19778;SDS011;10049;59.306;18.090;2023-08-12T06:07:02;2.28;;;0.50;;
19778;SDS011;10049;59.306;18.090;2023-08-12T06:09:29;0.98;;;0.50;;
19778;SDS011;10049;59.306;18.090;2023-08-12T06:11:57;1.80;;;0.50;;
19778;SDS011;10049;59.306;18.090;2023-08-12T06:14:25;2.42;;;0.50;;
19778;SDS011;10049;59.306;18.090;2023-08-12T06:16:52;1.27;;;0.50;;
19778;SDS011;10049;59.306;18.090;2023-08-12T06:19:21;0.73;;;0.40;;
19778;SDS011;10049;59.306;18.090;2023-08-12T06:21:49;2.13;;;0.60;;
19778;SDS011;10049;59.306;18.090;2023-08-12T06:24:17;0.95;;;0.40;;
19778;SDS011;10049;59.306;18.090;2023-08-12T06:26:44;2.15;;;0.50;;
19778;SDS011;10049;59.306;18.090;2023-08-12T06:29:12;2.40;;;0.57;;
19778;SDS011;10049;59.306;18.090;2023-08-12T06:31:40;0.50;;;0.40;;
19778;SDS011;10049;59.306;18.090;2023-08-12T06:34:07;0.68;;;0.60;;
19778;SDS011;10049;59.306;18.090;2023-08-12T06:36:37;1.25;;;0.52;;
19778;SDS011;10049;59.306;18.090;2023-08-12T06:39:05;3.08;;;0.50;;
19778;SDS011;10049;59.306;18.090;2023-08-12T06:41:32;3.25;;;0.50;;
19778;SDS011;10049;59.306;18.090;2023-08-12T06:44:00;2.63;;;0.57;;
19778;SDS011;10049;59.306;18.090;2023-08-12T06:46:29;0.50;;;0.50;;
19778;SDS011;10049;59.306;18.090;2023-08-12T06:48:57;1.58;;;0.55;;
19778;SDS011;10049;59.306;18.090;2023-08-12T06:51:25;0.60;;;0.50;;
19778;SDS011;10049;59.306;18.090;2023-08-12T06:53:54;1.52;;;0.60;;
19778;SDS011;10049;59.306;18.090;2023-08-12T06:56:22;2.65;;;0.50;;
19778;SDS011;10049;59.306;18.090;2023-08-12T06:58:49;1.45;;;0.50;;
19778;SDS011;10049;59.306;18.090;2023-08-12T07:01:17;2.33;;;0.65;;
19778;SDS011;10049;59.306;18.090;2023-08-12T07:03:45;2.47;;;0.50;;
19778;SDS011;10049;59.306;18.090;2023-08-12T07:06:12;1.27;;;0.50;;
19778;SDS011;10049;59.306;18.090;2023-08-12T07:08:40;0.80;;;0.60;;
19778;SDS011;10049;59.306;18.090;2023-08-12T07:11:10;1.08;;;0.40;;
19778;SDS011;10049;59.306;18.090;2023-08-12T07:13:40;1.13;;;0.50;;
19778;SDS011;10049;59.306;18.090;2023-08-12T07:16:12;1.70;;;0.50;;
19778;SDS011;10049;59.306;18.090;2023-08-12T07:18:42;1.13;;;0.63;;
19778;SDS011;10049;59.306;18.090;2023-08-12T07:21:10;1.48;;;0.57;;
19778;SDS011;10049;59.306;18.090;2023-08-12T07:23:40;3.00;;;0.93;;
19778;SDS011;10049;59.306;18.090;2023-08-12T07:26:10;1.35;;;0.50;;
19778;SDS011;10049;59.306;18.090;2023-08-12T07:28:37;1.73;;;0.63;;
19778;SDS011;10049;59.306;18.090;2023-08-12T07:31:05;1.02;;;0.50;;
19778;SDS011;10049;59.306;18.090;2023-08-12T07:33:34;1.67;;;0.52;;
19778;SDS011;10049;59.306;18.090;2023-08-12T07:36:02;0.90;;;0.43;;
19778;SDS011;10049;59.306;18.090;2023-08-12T07:38:30;1.55;;;0.60;;
19778;SDS011;10049;59.306;18.090;2023-08-12T07:40:59;2.88;;;0.60;;
19778;SDS011;10049;59.306;18.090;2023-08-12T07:43:29;4.45;;;0.80;;
19778;SDS011;10049;59.306;18.090;2023-08-12T07:46:04;2.70;;;0.70;;
19778;SDS011;10049;59.306;18.090;2023-08-12T07:48:31;0.57;;;0.40;;
19778;SDS011;10049;59.306;18.090;2023-08-12T07:51:02;0.70;;;0.57;;
19778;SDS011;10049;59.306;18.090;2023-08-12T07:53:30;1.52;;;0.50;;
19778;SDS011;10049;59.306;18.090;2023-08-12T07:55:58;2.47;;;0.60;;
19778;SDS011;10049;59.306;18.090;2023-08-12T07:58:26;0.90;;;0.45;;
19778;SDS011;10049;59.306;18.090;2023-08-12T08:00:56;0.70;;;0.60;;
19778;SDS011;10049;59.306;18.090;2023-08-12T08:03:24;0.65;;;0.57;;
19778;SDS011;10049;59.306;18.090;2023-08-12T08:05:55;1.73;;;0.50;;
19778;SDS011;10049;59.306;18.090;2023-08-12T08:08:22;1.38;;;0.70;;
19778;SDS011;10049;59.306;18.090;2023-08-12T08:10:50;1.60;;;0.52;;
19778;SDS011;10049;59.306;18.090;2023-08-12T08:13:20;0.93;;;0.52;;
19778;SDS011;10049;59.306;18.090;2023-08-12T08:15:48;1.48;;;0.57;;
19778;SDS011;10049;59.306;18.090;2023-08-12T08:18:17;1.42;;;0.73;;
19778;SDS011;10049;59.306;18.090;2023-08-12T08:20:45;1.75;;;0.60;;
19778;SDS011;10049;59.306;18.090;2023-08-12T08:23:13;5.25;;;0.60;;
19778;SDS011;10049;59.306;18.090;2023-08-12T08:25:41;1.45;;;0.60;;
19778;SDS011;10049;59.306;18.090;2023-08-12T08:28:08;0.75;;;0.50;;
19778;SDS011;10049;59.306;18.090;2023-08-12T08:30:36;2.75;;;0.73;;
19778;SDS011;10049;59.306;18.090;2023-08-12T08:33:04;2.25;;;0.60;;
19778;SDS011;10049;59.306;18.090;2023-08-12T08:35:33;1.02;;;0.68;;
19778;SDS011;10049;59.306;18.090;2023-08-12T08:38:01;1.40;;;0.50;;
19778;SDS011;10049;59.306;18.090;2023-08-12T08:40:31;2.85;;;0.60;;
19778;SDS011;10049;59.306;18.090;2023-08-12T08:42:59;1.35;;;0.70;;
19778;SDS011;10049;59.306;18.090;2023-08-12T08:45:29;3.97;;;0.68;;
19778;SDS011;10049;59.306;18.090;2023-08-12T08:47:59;0.90;;;0.50;;
19778;SDS011;10049;59.306;18.090;2023-08-12T08:50:27;1.02;;;0.70;;
19778;SDS011;10049;59.306;18.090;2023-08-12T08:52:56;0.55;;;0.50;;
19778;SDS011;10049;59.306;18.090;2023-08-12T08:55:24;2.85;;;0.93;;
19778;SDS011;10049;59.306;18.090;2023-08-12T08:57:52;1.23;;;0.60;;
19778;SDS011;10049;59.306;18.090;2023-08-12T09:00:20;1.02;;;0.50;;
19778;SDS011;10049;59.306;18.090;2023-08-12T09:02:54;1.58;;;0.63;;
19778;SDS011;10049;59.306;18.090;2023-08-12T09:05:25;1.13;;;0.50;;
19778;SDS011;10049;59.306;18.090;2023-08-12T09:07:53;1.55;;;0.60;;
19778;SDS011;10049;59.306;18.090;2023-08-12T09:10:23;1.23;;;0.50;;
19778;SDS011;10049;59.306;18.090;2023-08-12T09:12:53;0.95;;;0.45;;
19778;SDS011;10049;59.306;18.090;2023-08-12T09:15:21;0.55;;;0.50;;
19778;SDS011;10049;59.306;18.090;2023-08-12T09:17:49;2.15;;;0.60;;
19778;SDS011;10049;59.306;18.090;2023-08-12T09:20:16;1.65;;;0.70;;
19778;SDS011;10049;59.306;18.090;2023-08-12T09:22:44;2.65;;;0.70;;
19778;SDS011;10049;59.306;18.090;2023-08-12T09:25:13;3.70;;;0.70;;
19778;SDS011;10049;59.306;18.090;2023-08-12T09:27:42;1.00;;;0.55;;
19778;SDS011;10049;59.306;18.090;2023-08-12T09:30:10;2.65;;;0.50;;
19778;SDS011;10049;59.306;18.090;2023-08-12T09:32:38;0.82;;;0.40;;
19778;SDS011;10049;59.306;18.090;2023-08-12T09:35:10;1.15;;;0.60;;
19778;SDS011;10049;59.306;18.090;2023-08-12T09:37:43;1.70;;;0.57;;
19778;SDS011;10049;59.306;18.090;2023-08-12T09:40:11;2.00;;;0.60;;
19778;SDS011;10049;59.306;18.090;2023-08-12T09:42:45;1.05;;;0.45;;
19778;SDS011;10049;59.306;18.090;2023-08-12T09:45:13;0.55;;;0.50;;
19778;SDS011;10049;59.306;18.090;2023-08-12T09:47:42;1.25;;;0.50;;
19778;SDS011;10049;59.306;18.090;2023-08-12T09:50:10;1.80;;;0.63;;
19778;SDS011;10049;59.306;18.090;2023-08-12T09:52:38;0.40;;;0.40;;
19778;SDS011;10049;59.306;18.090;2023-08-12T09:55:07;0.63;;;0.50;;
19778;SDS011;10049;59.306;18.090;2023-08-12T09:57:35;1.50;;;0.50;;
19778;SDS011;10049;59.306;18.090;2023-08-12T10:00:07;0.57;;;0.45;;
19778;SDS011;10049;59.306;18.090;2023-08-12T10:02:38;1.42;;;0.55;;
19778;SDS011;10049;59.306;18.090;2023-08-12T10:05:07;1.95;;;0.60;;
19778;SDS011;10049;59.306;18.090;2023-08-12T10:07:36;0.65;;;0.50;;
19778;SDS011;10049;59.306;18.090;2023-08-12T10:10:04;0.93;;;0.40;;
19778;SDS011;10049;59.306;18.090;2023-08-12T10:12:32;0.95;;;0.50;;
19778;SDS011;10049;59.306;18.090;2023-08-12T10:15:00;0.85;;;0.63;;
19778;SDS011;10049;59.306;18.090;2023-08-12T10:17:29;0.88;;;0.50;;
19778;SDS011;10049;59.306;18.090;2023-08-12T10:19:57;0.75;;;0.50;;
19778;SDS011;10049;59.306;18.090;2023-08-12T10:22:25;0.47;;;0.40;;
19778;SDS011;10049;59.306;18.090;2023-08-12T10:24:53;1.38;;;0.50;;
19778;SDS011;10049;59.306;18.090;2023-08-12T10:27:21;0.43;;;0.32;;
19778;SDS011;10049;59.306;18.090;2023-08-12T10:29:49;1.15;;;0.40;;
19778;SDS011;10049;59.306;18.090;2023-08-12T10:32:16;0.77;;;0.40;;
19778;SDS011;10049;59.306;18.090;2023-08-12T10:34:45;0.85;;;0.50;;
19778;SDS011;10049;59.306;18.090;2023-08-12T10:37:22;3.15;;;0.43;;
19778;SDS011;10049;59.306;18.090;2023-08-12T10:39:51;0.82;;;0.40;;
19778;SDS011;10049;59.306;18.090;2023-08-12T10:45:06;1.10;;;0.40;;
19778;SDS011;10049;59.306;18.090;2023-08-12T10:47:37;0.55;;;0.40;;
19778;SDS011;10049;59.306;18.090;2023-08-12T10:50:10;3.22;;;0.50;;
19778;SDS011;10049;59.306;18.090;2023-08-12T10:52:43;1.83;;;0.52;;
19778;SDS011;10049;59.306;18.090;2023-08-12T10:55:29;1.73;;;0.50;;
19778;SDS011;10049;59.306;18.090;2023-08-12T10:57:57;2.35;;;0.47;;
19778;SDS011;10049;59.306;18.090;2023-08-12T11:00:26;0.70;;;0.50;;
19778;SDS011;10049;59.306;18.090;2023-08-12T11:02:55;1.27;;;0.60;;
19778;SDS011;10049;59.306;18.090;2023-08-12T11:05:25;0.90;;;0.50;;
19778;SDS011;10049;59.306;18.090;2023-08-12T11:08:03;0.52;;;0.40;;
19778;SDS011;10049;59.306;18.090;2023-08-12T11:10:32;1.02;;;0.50;;
19778;SDS011;10049;59.306;18.090;2023-08-12T11:13:00;2.45;;;0.57;;
19778;SDS011;10049;59.306;18.090;2023-08-12T11:15:31;0.50;;;0.40;;
19778;SDS011;10049;59.306;18.090;2023-08-12T11:18:01;1.30;;;0.63;;
19778;SDS011;10049;59.306;18.090;2023-08-12T11:20:32;1.52;;;0.50;;
19778;SDS011;10049;59.306;18.090;2023-08-12T11:22:59;0.88;;;0.60;;
19778;SDS011;10049;59.306;18.090;2023-08-12T11:25:40;1.92;;;0.50;;
19778;SDS011;10049;59.306;18.090;2023-08-12T11:28:09;0.95;;;0.52;;
19778;SDS011;10049;59.306;18.090;2023-08-12T11:30:40;0.80;;;0.45;;
19778;SDS011;10049;59.306;18.090;2023-08-12T11:33:17;1.58;;;0.60;;
19778;SDS011;10049;59.306;18.090;2023-08-12T11:35:47;1.13;;;0.52;;
19778;SDS011;10049;59.306;18.090;2023-08-12T11:38:15;1.15;;;0.63;;
19778;SDS011;10049;59.306;18.090;2023-08-12T11:40:43;0.57;;;0.52;;
19778;SDS011;10049;59.306;18.090;2023-08-12T11:43:11;2.83;;;0.60;;
19778;SDS011;10049;59.306;18.090;2023-08-12T11:45:41;0.98;;;0.50;;
19778;SDS011;10049;59.306;18.090;2023-08-12T11:48:09;1.35;;;0.50;;
19778;SDS011;10049;59.306;18.090;2023-08-12T11:50:36;0.60;;;0.60;;
19778;SDS011;10049;59.306;18.090;2023-08-12T11:53:06;1.38;;;0.70;;
19778;SDS011;10049;59.306;18.090;2023-08-12T11:55:37;1.65;;;0.63;;
19778;SDS011;10049;59.306;18.090;2023-08-12T11:58:05;2.08;;;0.90;;
19778;SDS011;10049;59.306;18.090;2023-08-12T12:00:32;3.20;;;0.80;;
19778;SDS011;10049;59.306;18.090;2023-08-12T12:03:00;1.20;;;0.68;;
19778;SDS011;10049;59.306;18.090;2023-08-12T12:05:28;1.30;;;0.50;;
19778;SDS011;10049;59.306;18.090;2023-08-12T12:07:58;1.88;;;0.70;;
19778;SDS011;10049;59.306;18.090;2023-08-12T12:10:28;3.17;;;0.50;;
19778;SDS011;10049;59.306;18.090;2023-08-12T12:12:56;0.95;;;0.50;;
19778;SDS011;10049;59.306;18.090;2023-08-12T12:15:23;2.13;;;0.80;;
19778;SDS011;10049;59.306;18.090;2023-08-12T12:17:51;1.70;;;0.68;;
19778;SDS011;10049;59.306;18.090;2023-08-12T12:20:21;2.05;;;0.60;;
19778;SDS011;10049;59.306;18.090;2023-08-12T12:22:49;1.40;;;0.57;;
19778;SDS011;10049;59.306;18.090;2023-08-12T12:25:18;1.38;;;0.60;;
19778;SDS011;10049;59.306;18.090;2023-08-12T12:27:46;0.70;;;0.50;;
19778;SDS011;10049;59.306;18.090;2023-08-12T12:30:14;0.60;;;0.50;;
19778;SDS011;10049;59.306;18.090;2023-08-12T12:32:42;2.08;;;0.80;;
19778;SDS011;10049;59.306;18.090;2023-08-12T12:35:10;0.65;;;0.57;;
19778;SDS011;10049;59.306;18.090;2023-08-12T12:37:38;0.52;;;0.40;;
19778;SDS011;10049;59.306;18.090;2023-08-12T12:40:06;1.42;;;0.68;;
19778;SDS011;10049;59.306;18.090;2023-08-12T12:42:39;0.60;;;0.52;;
19778;SDS011;10049;59.306;18.090;2023-08-12T12:45:09;1.20;;;0.60;;
19778;SDS011;10049;59.306;18.090;2023-08-12T12:47:37;1.33;;;0.63;;
19778;SDS011;10049;59.306;18.090;2023-08-12T12:50:04;0.77;;;0.60;;
19778;SDS011;10049;59.306;18.090;2023-08-12T12:52:32;0.98;;;0.60;;
19778;SDS011;10049;59.306;18.090;2023-08-12T12:54:59;4.38;;;1.45;;
19778;SDS011;10049;59.306;18.090;2023-08-12T12:57:29;11.90;;;2.65;;
19778;SDS011;10049;59.306;18.090;2023-08-12T12:59:57;14.60;;;2.72;;
19778;SDS011;10049;59.306;18.090;2023-08-12T13:02:26;4.63;;;1.50;;
19778;SDS011;10049;59.306;18.090;2023-08-12T13:04:53;4.00;;;1.00;;
19778;SDS011;10049;59.306;18.090;2023-08-12T13:07:21;5.10;;;1.00;;
19778;SDS011;10049;59.306;18.090;2023-08-12T13:09:49;3.67;;;0.90;;
19778;SDS011;10049;59.306;18.090;2023-08-12T13:12:16;2.40;;;0.80;;
19778;SDS011;10049;59.306;18.090;2023-08-12T13:14:44;4.90;;;1.00;;
19778;SDS011;10049;59.306;18.090;2023-08-12T13:17:12;1.88;;;0.70;;
19778;SDS011;10049;59.306;18.090;2023-08-12T13:19:41;3.15;;;0.82;;
19778;SDS011;10049;59.306;18.090;2023-08-12T13:22:08;0.65;;;0.52;;
19778;SDS011;10049;59.306;18.090;2023-08-12T13:24:36;1.17;;;0.50;;
19778;SDS011;10049;59.306;18.090;2023-08-12T13:27:03;1.23;;;0.60;;
19778;SDS011;10049;59.306;18.090;2023-08-12T13:29:33;1.75;;;0.80;;
19778;SDS011;10049;59.306;18.090;2023-08-12T13:32:01;1.80;;;0.70;;
19778;SDS011;10049;59.306;18.090;2023-08-12T13:34:32;1.80;;;0.70;;
19778;SDS011;10049;59.306;18.090;2023-08-12T13:37:02;2.70;;;0.80;;
19778;SDS011;10049;59.306;18.090;2023-08-12T13:39:30;1.95;;;0.88;;
19778;SDS011;10049;59.306;18.090;2023-08-12T13:41:58;1.52;;;0.90;;
19778;SDS011;10049;59.306;18.090;2023-08-12T13:44:26;1.90;;;0.80;;
19778;SDS011;10049;59.306;18.090;2023-08-12T13:46:53;5.18;;;0.70;;
19778;SDS011;10049;59.306;18.090;2023-08-12T13:49:21;0.77;;;0.70;;
19778;SDS011;10049;59.306;18.090;2023-08-12T13:51:49;1.20;;;0.73;;
19778;SDS011;10049;59.306;18.090;2023-08-12T13:54:21;2.67;;;0.60;;
19778;SDS011;10049;59.306;18.090;2023-08-12T13:56:48;3.30;;;0.70;;
19778;SDS011;10049;59.306;18.090;2023-08-12T13:59:16;0.70;;;0.70;;
19778;SDS011;10049;59.306;18.090;2023-08-12T14:01:43;1.08;;;0.68;;
19778;SDS011;10049;59.306;18.090;2023-08-12T14:04:11;1.90;;;0.90;;
19778;SDS011;10049;59.306;18.090;2023-08-12T14:06:52;2.85;;;0.80;;
19778;SDS011;10049;59.306;18.090;2023-08-12T14:09:21;1.65;;;0.60;;
19778;SDS011;10049;59.306;18.090;2023-08-12T14:11:49;0.85;;;0.70;;
19778;SDS011;10049;59.306;18.090;2023-08-12T14:14:24;2.17;;;0.70;;
19778;SDS011;10049;59.306;18.090;2023-08-12T14:16:52;2.67;;;0.80;;
19778;SDS011;10049;59.306;18.090;2023-08-12T14:19:20;1.25;;;0.70;;
19778;SDS011;10049;59.306;18.090;2023-08-12T14:21:47;0.98;;;0.70;;
19778;SDS011;10049;59.306;18.090;2023-08-12T14:24:15;6.22;;;2.13;;
19778;SDS011;10049;59.306;18.090;2023-08-12T14:26:44;1.75;;;1.20;;
19778;SDS011;10049;59.306;18.090;2023-08-12T14:29:11;1.40;;;0.82;;
19778;SDS011;10049;59.306;18.090;2023-08-12T14:31:39;2.42;;;0.80;;
19778;SDS011;10049;59.306;18.090;2023-08-12T14:34:06;1.70;;;0.73;;
19778;SDS011;10049;59.306;18.090;2023-08-12T14:36:34;1.30;;;0.82;;
19778;SDS011;10049;59.306;18.090;2023-08-12T14:39:02;1.75;;;0.60;;
19778;SDS011;10049;59.306;18.090;2023-08-12T14:41:29;1.95;;;0.70;;
19778;SDS011;10049;59.306;18.090;2023-08-12T14:43:58;1.13;;;0.50;;
19778;SDS011;10049;59.306;18.090;2023-08-12T14:46:26;1.58;;;0.70;;